Time;durP1;ratioP1;P1;durP2;ratioP2;P2;SDS_P1;SDS_P2;PMS_P1;PMS_P2;Temp;Humidity;BMP_temperature;BMP_pressure;BME280_temperature;BME280_humidity;BME280_pressure;Samples;Min_cycle;Max_cycle;Signal;HPM_P1;HPM_P2
2022/06/13 00:00:27;;;;;;;3.15;1.15;;;19.20;76.70;;;;;;5014895;28;20041;-84
2022/06/13 00:02:53;;;;;;;6.65;1.30;;;19.20;77.40;;;;;;5018502;28;20041;-82
2022/06/13 00:05:22;;;;;;;4.10;1.40;;;19.10;77.90;;;;;;5018763;28;20030;-84
2022/06/13 00:07:48;;;;;;;3.80;1.60;;;19.00;78.30;;;;;;5004453;28;20030;-85
2022/06/13 00:10:14;;;;;;;3.65;1.13;;;18.90;78.80;;;;;;4998363;28;20037;-84
2022/06/13 00:12:41;;;;;;;4.35;1.35;;;18.90;78.90;;;;;;4998060;28;20085;-84
2022/06/13 00:15:10;;;;;;;4.90;1.40;;;18.80;79.00;;;;;;5018426;28;20021;-82
2022/06/13 00:17:35;;;;;;;2.67;1.10;;;18.80;79.30;;;;;;5015479;28;20046;-83
2022/06/13 00:20:02;;;;;;;4.03;1.40;;;18.70;79.50;;;;;;5022067;28;20021;-86
2022/06/13 00:22:28;;;;;;;3.70;1.30;;;18.60;79.80;;;;;;5024957;28;20046;-82
2022/06/13 00:24:53;;;;;;;5.03;1.30;;;18.60;80.10;;;;;;5030920;28;20018;-82
2022/06/13 00:27:19;;;;;;;4.25;1.60;;;18.50;80.50;;;;;;5037810;28;20042;-82
2022/06/13 00:29:47;;;;;;;3.60;1.35;;;18.40;81.00;;;;;;5038060;28;20078;-85
2022/06/13 00:32:13;;;;;;;3.90;1.40;;;18.30;80.80;;;;;;5034607;28;20086;-84
2022/06/13 00:34:39;;;;;;;6.03;2.35;;;18.30;81.20;;;;;;5018443;28;20038;-84
2022/06/13 00:37:05;;;;;;;10.70;5.20;;;18.20;82.10;;;;;;5018259;28;20025;-84
2022/06/13 00:39:31;;;;;;;2.97;1.40;;;18.20;82.40;;;;;;5025163;28;20010;-84
2022/06/13 00:41:56;;;;;;;2.78;1.25;;;18.10;82.50;;;;;;5023855;28;20040;-86
2022/06/13 00:44:31;;;;;;;5.45;2.45;;;18.10;83.00;;;;;;5024113;28;20072;-84
2022/06/13 00:46:57;;;;;;;5.10;1.92;;;18.00;83.20;;;;;;5001568;28;20030;-83
2022/06/13 00:49:37;;;;;;;3.47;1.17;;;17.90;83.70;;;;;;5014008;28;20033;-83
2022/06/13 00:52:17;;;;;;;3.88;1.38;;;17.80;84.00;;;;;;4998173;28;20034;-83
2022/06/13 00:54:45;;;;;;;1.93;1.07;;;17.80;84.30;;;;;;4995644;28;20026;-83
2022/06/13 00:57:19;;;;;;;3.17;1.13;;;17.80;84.40;;;;;;5012476;28;20018;-83
2022/06/13 00:59:47;;;;;;;4.40;1.45;;;17.70;84.50;;;;;;5010708;28;20053;-84
2022/06/13 01:02:13;;;;;;;4.35;1.45;;;17.70;84.90;;;;;;4996988;28;20053;-81
2022/06/13 01:04:42;;;;;;;3.42;1.50;;;;;;;;;;4996540;28;20033;-84
2022/06/13 01:07:10;;;;;;;4.20;1.30;;;17.50;85.10;;;;;;5007206;28;20057;-84
2022/06/13 01:12:24;;;;;;;4.57;1.80;;;17.40;86.40;;;;;;5037382;23;20053;-84
2022/06/13 01:15:19;;;;;;;3.67;1.40;;;17.40;86.80;;;;;;5036066;28;20526;-83
2022/06/13 01:18:03;;;;;;;5.22;1.42;;;17.30;86.80;;;;;;5014024;28;20040;-83
2022/06/13 01:20:45;;;;;;;3.33;1.30;;;17.30;86.70;;;;;;5036571;28;20049;-84
2022/06/13 01:23:22;;;;;;;5.10;1.38;;;17.30;86.80;;;;;;5052763;28;20060;-84
2022/06/13 01:26:09;;;;;;;5.70;1.50;;;17.30;87.10;;;;;;5026868;28;20099;-81
2022/06/13 01:29:12;;;;;;;3.78;1.30;;;17.30;87.60;;;;;;5033997;28;20072;-84
2022/06/13 01:31:46;;;;;;;5.28;1.55;;;17.30;87.70;;;;;;5026874;28;20038;-85
2022/06/13 01:34:34;;;;;;;3.40;1.35;;;17.30;87.90;;;;;;5041850;28;20487;-84
2022/06/13 01:37:10;;;;;;;3.95;1.50;;;17.20;87.90;;;;;;5032948;28;20030;-82
2022/06/13 01:40:15;;;;;;;3.67;1.38;;;17.20;88.70;;;;;;5028933;28;20025;-84
2022/06/13 01:43:05;;;;;;;4.40;1.30;;;17.10;89.10;;;;;;5025244;28;20082;-82
2022/06/13 01:45:54;;;;;;;6.80;1.40;;;17.10;89.50;;;;;;5026626;28;20025;-83
2022/06/13 01:48:29;;;;;;;4.97;1.30;;;17.10;89.70;;;;;;5030251;28;20041;-82
2022/06/13 01:50:57;;;;;;;5.97;1.55;;;17.10;89.50;;;;;;5031499;28;20025;-85
2022/06/13 01:53:58;;;;;;;5.82;1.20;;;17.00;89.50;;;;;;5020933;28;20026;-84
2022/06/13 01:56:32;;;;;;;6.03;1.67;;;17.00;90.00;;;;;;5046636;28;20590;-85
2022/06/13 01:59:10;;;;;;;5.13;1.67;;;16.90;90.00;;;;;;5040634;28;20067;-82
2022/06/13 02:01:45;;;;;;;4.00;1.20;;;16.80;90.10;;;;;;5035419;28;20025;-82
2022/06/13 02:04:30;;;;;;;4.93;1.60;;;16.70;90.30;;;;;;5035346;28;20026;-83
2022/06/13 02:07:08;;;;;;;3.55;1.30;;;16.70;90.60;;;;;;5023998;28;20030;-83
2022/06/13 02:09:59;;;;;;;4.30;1.45;;;16.70;90.80;;;;;;5036574;28;20037;-83
2022/06/13 02:12:30;;;;;;;5.35;1.55;;;16.60;91.00;;;;;;5027708;28;20033;-84
2022/06/13 02:15:02;;;;;;;5.10;1.52;;;16.60;91.10;;;;;;5031730;28;20040;-85
2022/06/13 02:17:31;;;;;;;3.97;1.70;;;16.60;91.10;;;;;;5034666;28;20044;-84
2022/06/13 02:20:05;;;;;;;5.73;1.97;;;16.50;91.30;;;;;;5031707;28;20034;-83
2022/06/13 02:22:39;;;;;;;4.55;1.58;;;16.50;91.50;;;;;;5040765;28;20025;-84
2022/06/13 02:25:28;;;;;;;5.20;1.95;;;16.40;91.80;;;;;;5046388;28;20127;-84
2022/06/13 02:28:06;;;;;;;6.47;1.70;;;16.40;91.90;;;;;;5067866;28;20022;-85
2022/06/13 02:30:49;;;;;;;5.45;1.75;;;16.40;92.00;;;;;;5051089;28;20013;-84
2022/06/13 02:33:40;;;;;;;6.75;1.52;;;16.40;92.10;;;;;;5049026;28;20033;-83
2022/06/13 02:36:14;;;;;;;5.22;1.60;;;16.40;92.00;;;;;;5047767;28;20014;-84
2022/06/13 02:38:48;;;;;;;3.28;1.40;;;16.40;92.20;;;;;;5030079;28;20112;-85
2022/06/13 02:41:26;;;;;;;6.57;2.00;;;16.30;92.50;;;;;;5032789;28;20048;-83
2022/06/13 02:44:01;;;;;;;6.55;1.70;;;16.30;92.40;;;;;;5038866;28;20442;-83
2022/06/13 02:46:44;;;;;;;4.55;1.45;;;16.30;92.70;;;;;;5019110;28;20037;-81
2022/06/13 02:49:19;;;;;;;5.78;1.80;;;16.30;92.80;;;;;;5029241;28;20033;-82
2022/06/13 02:52:15;;;;;;;8.07;1.73;;;16.20;92.90;;;;;;5023913;28;20120;-81
2022/06/13 02:54:51;;;;;;;7.13;1.98;;;16.20;92.90;;;;;;5031302;28;20021;-83
2022/06/13 02:57:31;;;;;;;4.53;1.70;;;16.20;93.00;;;;;;5044741;28;20029;-80
2022/06/13 03:00:10;;;;;;;5.45;1.70;;;16.20;93.10;;;;;;5032427;28;20021;-82
2022/06/13 03:03:09;;;;;;;4.90;1.60;;;16.20;93.30;;;;;;5030323;28;20112;-85
2022/06/13 03:05:48;;;;;;;5.80;2.00;;;16.20;93.60;;;;;;5030014;28;20026;-81
2022/06/13 03:08:39;;;;;;;3.28;1.60;;;16.10;93.70;;;;;;5033346;28;20049;-82
2022/06/13 03:11:30;;;;;;;4.10;1.50;;;16.00;93.90;;;;;;5034538;28;20422;-82
2022/06/13 03:14:17;;;;;;;3.75;1.70;;;16.00;94.20;;;;;;5032231;28;20030;-81
2022/06/13 03:17:15;;;;;;;6.82;1.77;;;16.00;94.40;;;;;;5033059;28;20022;-80
2022/06/13 03:20:28;;;;;;;6.63;2.20;;;15.90;94.60;;;;;;4974913;28;20025;-82
2022/06/13 03:23:08;;;;;;;5.25;1.73;;;15.90;94.60;;;;;;5021799;28;20042;-80
2022/06/13 03:25:39;;;;;;;;;;;15.90;94.80;;;;;;5033565;28;20025;-83
2022/06/13 03:28:15;;;;;;;5.20;1.90;;;15.90;95.00;;;;;;5029386;28;19910;-82
2022/06/13 03:30:57;;;;;;;5.85;1.95;;;15.80;95.30;;;;;;5033035;28;20495;-80
2022/06/13 03:33:42;;;;;;;3.90;1.52;;;15.90;95.40;;;;;;5028170;28;20044;-81
2022/06/13 03:36:37;;;;;;;4.80;1.83;;;15.90;95.40;;;;;;5030822;28;20025;-82
2022/06/13 03:39:21;;;;;;;6.65;2.17;;;15.90;95.50;;;;;;5030167;28;20056;-86
2022/06/13 03:41:54;;;;;;;6.13;1.95;;;15.80;95.60;;;;;;5043322;28;20057;-83
2022/06/13 03:44:46;;;;;;;6.38;1.90;;;15.80;95.80;;;;;;5036385;28;20052;-82
2022/06/13 03:47:45;;;;;;;7.10;2.20;;;15.70;96.10;;;;;;5026771;28;20084;-82
2022/06/13 03:50:31;;;;;;;6.35;2.05;;;15.70;96.30;;;;;;4994869;28;20063;-82
2022/06/13 03:53:17;;;;;;;4.43;1.83;;;15.70;96.50;;;;;;5033320;28;20029;-82
2022/06/13 03:56:17;;;;;;;5.15;2.03;;;15.70;96.60;;;;;;5028693;28;20037;-84
2022/06/13 03:59:05;;;;;;;;;;;15.70;96.80;;;;;;4996242;28;20037;-83
2022/06/13 04:01:43;;;;;;;7.32;1.90;;;15.70;97.10;;;;;;5033765;28;19909;-84
2022/06/13 04:04:20;;;;;;;7.03;2.13;;;15.70;97.10;;;;;;5032030;28;20121;-83
2022/06/13 04:06:46;;;;;;;7.65;2.08;;;15.70;97.30;;;;;;5032702;28;20116;-83
2022/06/13 04:09:26;;;;;;;4.97;2.20;;;15.70;97.50;;;;;;5030274;28;20052;-83
2022/06/13 04:12:10;;;;;;;7.13;1.90;;;15.70;97.40;;;;;;5029060;28;20037;-81
2022/06/13 04:14:59;;;;;;;8.38;2.30;;;15.60;97.70;;;;;;5031268;28;20542;-84
2022/06/13 04:17:46;;;;;;;7.88;2.55;;;15.60;98.00;;;;;;5049034;28;20072;-84
2022/06/13 04:20:24;;;;;;;5.47;2.17;;;15.60;98.20;;;;;;5022034;28;20026;-82
2022/06/13 04:23:08;;;;;;;5.85;2.05;;;15.60;98.40;;;;;;5033958;28;20124;-83
2022/06/13 04:25:52;;;;;;;6.80;2.03;;;15.60;98.60;;;;;;5025196;28;20030;-82
2022/06/13 04:28:21;;;;;;;6.00;1.95;;;15.60;98.50;;;;;;5030860;28;20037;-84
2022/06/13 04:30:53;;;;;;;4.22;1.80;;;15.60;98.80;;;;;;5034147;28;20407;-84
2022/06/13 04:33:30;;;;;;;5.10;2.10;;;15.70;98.70;;;;;;5025206;28;20115;-84
2022/06/13 04:35:57;;;;;;;6.82;2.22;;;15.70;98.90;;;;;;5036168;28;20021;-84
2022/06/13 04:38:24;;;;;;;5.47;2.20;;;15.70;98.90;;;;;;5037227;28;20018;-87
2022/06/13 04:40:55;;;;;;;5.22;2.00;;;15.70;99.00;;;;;;5032640;28;20441;-86
2022/06/13 04:43:26;;;;;;;6.15;2.17;;;15.70;99.20;;;;;;5031337;28;20036;-87
2022/06/13 04:46:14;;;;;;;6.90;2.40;;;15.80;99.10;;;;;;5033957;28;20017;-85
2022/06/13 04:48:42;;;;;;;6.15;2.10;;;15.80;99.20;;;;;;5029413;28;20434;-86
2022/06/13 04:51:15;;;;;;;5.75;2.25;;;15.80;99.20;;;;;;5035541;28;20022;-86
2022/06/13 04:54:06;;;;;;;5.85;2.30;;;15.70;99.30;;;;;;5033503;28;20022;-86
2022/06/13 04:56:33;;;;;;;5.72;2.33;;;15.70;99.60;;;;;;5028007;28;20059;-89
2022/06/13 04:59:01;;;;;;;7.45;2.30;;;15.80;99.60;;;;;;5026096;28;20501;-86
2022/06/13 05:01:28;;;;;;;5.63;2.10;;;15.90;99.50;;;;;;5024142;28;20029;-85
2022/06/13 05:04:00;;;;;;;9.25;2.50;;;16.00;99.30;;;;;;5025554;28;20030;-86
2022/06/13 05:06:44;;;;;;;7.63;2.30;;;16.00;99.00;;;;;;5032128;28;20033;-86
2022/06/13 05:09:09;;;;;;;7.15;2.45;;;16.10;99.10;;;;;;5033387;28;20033;-86
2022/06/13 05:11:51;;;;;;;9.77;2.30;;;16.10;99.30;;;;;;5032283;28;20029;-85
2022/06/13 05:14:19;;;;;;;7.57;2.40;;;16.20;98.90;;;;;;5032324;28;20030;-86
2022/06/13 05:17:09;;;;;;;8.70;2.67;;;16.20;99.10;;;;;;5033444;28;20076;-87
2022/06/13 05:19:43;;;;;;;5.97;2.67;;;16.20;98.90;;;;;;5033532;28;20093;-86
2022/06/13 05:22:32;;;;;;;7.45;2.40;;;16.90;98.00;;;;;;5036905;28;20021;-88
2022/06/13 05:25:17;;;;;;;12.32;2.67;;;18.00;95.80;;;;;;5041046;28;20026;-88
2022/06/13 05:27:42;;;;;;;7.28;2.53;;;19.10;93.00;;;;;;5036082;28;20037;-88
2022/06/13 05:30:14;;;;;;;4.60;2.08;;;19.60;92.00;;;;;;5041744;28;20038;-86
2022/06/13 05:32:40;;;;;;;7.15;2.40;;;20.00;91.40;;;;;;5042696;28;20025;-86
2022/06/13 05:35:07;;;;;;;9.52;2.33;;;20.50;90.70;;;;;;5041904;28;20056;-86
2022/06/13 05:37:33;;;;;;;7.35;2.13;;;21.00;89.40;;;;;;5044688;28;20025;-87
2022/06/13 05:39:58;;;;;;;7.53;2.47;;;21.00;87.90;;;;;;5034012;28;20704;-87
2022/06/13 05:42:24;;;;;;;7.28;2.58;;;21.20;88.00;;;;;;5037881;28;20025;-86
2022/06/13 05:44:50;;;;;;;8.20;2.72;;;21.30;86.50;;;;;;5022140;28;20068;-86
2022/06/13 05:47:19;;;;;;;8.60;2.72;;;21.40;86.70;;;;;;5033690;28;20080;-87
2022/06/13 05:49:45;;;;;;;;;;;21.60;85.90;;;;;;5036221;28;20659;-86
2022/06/13 05:52:11;;;;;;;6.03;2.30;;;21.70;84.90;;;;;;5034885;28;19913;-86
2022/06/13 05:54:37;;;;;;;9.40;2.70;;;21.80;84.80;;;;;;5035719;28;20077;-86
2022/06/13 05:57:03;;;;;;;5.93;2.42;;;21.90;84.00;;;;;;5041049;28;20033;-87
2022/06/13 05:59:29;;;;;;;6.30;2.40;;;21.70;83.50;;;;;;5043243;28;20034;-87
2022/06/13 06:01:55;;;;;;;8.52;2.30;;;21.90;84.30;;;;;;5044927;28;20065;-86
2022/06/13 06:04:20;;;;;;;8.60;2.35;;;21.90;83.50;;;;;;5047794;28;20037;-86
2022/06/13 06:06:46;;;;;;;6.88;2.40;;;21.60;84.50;;;;;;5045806;28;20050;-84
2022/06/13 06:09:14;;;;;;;5.63;2.38;;;21.80;84.00;;;;;;5046950;28;20191;-85
2022/06/13 06:11:40;;;;;;;8.48;2.70;;;21.70;84.00;;;;;;5044975;28;20030;-88
2022/06/13 06:14:07;;;;;;;8.27;2.47;;;21.70;84.50;;;;;;5042388;28;20025;-87
2022/06/13 06:16:33;;;;;;;12.07;2.60;;;22.00;83.60;;;;;;5035950;28;20077;-85
2022/06/13 06:19:02;;;;;;;13.07;2.33;;;22.00;83.10;;;;;;5037397;28;20029;-86
2022/06/13 06:21:28;;;;;;;5.82;2.25;;;22.00;83.80;;;;;;5040076;28;20067;-87
2022/06/13 06:23:53;;;;;;;6.57;2.50;;;22.10;82.80;;;;;;5037746;28;20022;-86
2022/06/13 06:26:22;;;;;;;6.40;2.30;;;22.10;82.60;;;;;;5050087;28;20034;-88
2022/06/13 06:28:48;;;;;;;7.35;2.30;;;22.30;81.90;;;;;;5048296;28;20089;-89
2022/06/13 06:31:14;;;;;;;5.32;2.38;;;21.90;82.00;;;;;;5049649;28;20010;-88
2022/06/13 06:33:39;;;;;;;7.28;2.17;;;22.00;80.90;;;;;;5047369;28;20097;-89
2022/06/13 06:36:06;;;;;;;6.53;2.08;;;21.90;80.80;;;;;;5051162;28;20041;-88
2022/06/13 06:38:31;;;;;;;5.68;2.00;;;22.00;81.20;;;;;;5051770;28;20025;-88
2022/06/13 06:40:57;;;;;;;8.70;3.75;;;22.10;80.40;;;;;;5048566;28;20026;-88
2022/06/13 06:43:23;;;;;;;9.95;3.03;;;22.10;80.10;;;;;;5047748;28;20053;-87
2022/06/13 06:45:49;;;;;;;6.13;2.20;;;22.00;80.40;;;;;;5046439;28;20036;-88
2022/06/13 06:48:17;;;;;;;7.10;2.55;;;22.40;79.80;;;;;;5023388;28;20057;-85
2022/06/13 06:50:45;;;;;;;6.47;2.08;;;22.40;79.00;;;;;;5032612;28;20030;-86
2022/06/13 06:53:12;;;;;;;6.32;2.30;;;22.10;79.00;;;;;;5032201;28;20079;-87
2022/06/13 07:01:11;;;;;;;7.93;2.10;;;22.10;76.50;;;;;;5033098;28;20029;-86
2022/06/13 07:03:38;;;;;;;6.70;2.05;;;21.60;77.70;;;;;;5036441;28;20471;-88
2022/06/13 07:06:04;;;;;;;5.35;1.73;;;21.40;78.50;;;;;;5038193;28;20041;-89
2022/06/13 07:08:30;;;;;;;3.97;1.80;;;21.30;76.90;;;;;;5036369;28;20078;-87
2022/06/13 07:13:45;;;;;;;5.93;2.00;;;21.10;77.90;;;;;;5036984;28;20084;-89
2022/06/13 07:16:11;;;;;;;6.60;2.28;;;21.10;77.60;;;;;;5044316;28;20041;-88
2022/06/13 07:18:37;;;;;;;8.75;3.10;;;21.00;78.00;;;;;;5043251;28;20510;-87
2022/06/13 07:21:03;;;;;;;7.43;2.10;;;21.00;79.00;;;;;;5034778;28;20108;-86
2022/06/13 07:23:29;;;;;;;6.32;2.00;;;21.00;77.60;;;;;;5037350;28;20036;-87
2022/06/13 07:25:55;;;;;;;8.02;1.60;;;21.10;76.10;;;;;;5039365;28;20025;-86
2022/06/13 07:28:21;;;;;;;5.60;1.70;;;21.10;76.80;;;;;;5039717;28;20522;-88
2022/06/13 07:30:47;;;;;;;6.07;2.03;;;21.00;76.70;;;;;;5040675;28;20056;-89
2022/06/13 07:33:13;;;;;;;6.47;2.10;;;21.10;76.40;;;;;;5035591;28;20030;-87
2022/06/13 07:35:38;;;;;;;4.88;1.73;;;21.20;77.30;;;;;;5033341;28;20044;-87
2022/06/13 07:38:16;;;;;;;5.18;1.85;;;21.10;77.00;;;;;;5036760;28;20044;-87
2022/06/13 07:40:46;;;;;;;4.43;1.92;;;21.10;75.40;;;;;;5039048;28;20022;-86
2022/06/13 07:43:18;;;;;;;;;;;21.10;76.10;;;;;;5034181;28;20032;-87
2022/06/13 07:45:44;;;;;;;4.30;1.80;;;;;;;;;;5044947;28;19909;-87
2022/06/13 07:48:13;;;;;;;5.57;2.08;;;21.20;76.90;;;;;;5046508;28;20021;-88
2022/06/13 07:50:40;;;;;;;5.07;1.63;;;21.20;78.60;;;;;;5046698;28;20033;-87
2022/06/13 07:53:06;;;;;;;5.75;2.05;;;19.90;74.20;;;;;;5047857;28;20026;-88
2022/06/13 07:55:32;;;;;;;6.32;1.92;;;21.20;74.20;;;;;;5044891;28;20022;-89
2022/06/13 07:57:59;;;;;;;5.22;1.77;;;21.20;72.00;;;;;;5052651;28;20033;-87
2022/06/13 08:00:31;;;;;;;5.57;1.70;;;21.10;72.50;;;;;;5047649;28;20079;-87
2022/06/13 08:02:57;;;;;;;3.60;1.70;;;;;;;;;;5043025;28;20112;-89
2022/06/13 08:05:23;;;;;;;6.88;2.13;;;21.20;72.20;;;;;;5042438;28;20120;-89
2022/06/13 08:07:49;;;;;;;4.45;2.03;;;21.20;74.20;;;;;;5039470;28;20479;-89
2022/06/13 08:10:15;;;;;;;5.00;1.80;;;21.20;73.00;;;;;;5042909;28;20040;-90
2022/06/13 08:12:43;;;;;;;5.00;1.95;;;21.30;73.30;;;;;;5049589;28;20037;-89
2022/06/13 08:15:10;;;;;;;4.03;1.75;;;21.60;71.40;;;;;;5049364;28;20051;-88
2022/06/13 08:17:36;;;;;;;4.18;1.63;;;21.50;71.90;;;;;;5048126;28;20081;-89
2022/06/13 08:20:03;;;;;;;8.68;2.08;;;21.70;69.80;;;;;;5046169;28;20037;-88
2022/06/13 08:22:29;;;;;;;5.55;1.70;;;21.70;70.40;;;;;;5048285;28;20017;-87
2022/06/13 08:24:54;;;;;;;6.35;1.70;;;21.80;70.50;;;;;;5050440;28;20021;-89
2022/06/13 08:27:21;;;;;;;6.13;2.08;;;21.90;71.50;;;;;;5050922;28;20028;-90
2022/06/13 08:29:47;;;;;;;6.85;1.85;;;;;;;;;;5043712;28;20020;-88
2022/06/13 08:32:14;;;;;;;4.82;1.80;;;;;;;;;;5051411;28;20041;-89
2022/06/13 08:34:40;;;;;;;5.03;1.58;;;;;;;;;;5055050;28;20024;-88
2022/06/13 08:37:05;;;;;;;5.07;1.85;;;22.10;65.50;;;;;;5046928;28;20033;-89
2022/06/13 08:39:31;;;;;;;4.45;1.65;;;22.00;66.80;;;;;;5049649;28;20123;-90
2022/06/13 08:42:09;;;;;;;10.00;2.80;;;22.00;66.70;;;;;;5049465;28;20013;-89
2022/06/13 08:44:55;;;;;;;4.30;1.90;;;22.00;66.10;;;;;;5042730;28;20028;-89
2022/06/13 08:47:21;;;;;;;8.70;2.30;;;;;;;;;;5043754;28;20057;-89
2022/06/13 08:49:57;;;;;;;3.90;1.80;;;22.10;66.50;;;;;;5045465;28;20057;-91
2022/06/13 08:52:31;;;;;;;6.30;2.00;;;22.20;67.10;;;;;;5046987;28;20034;-90
2022/06/13 08:55:11;;;;;;;8.30;2.25;;;22.20;67.20;;;;;;5047601;28;20022;-89
2022/06/13 08:58:07;;;;;;;6.57;2.25;;;22.30;68.40;;;;;;5043737;28;20013;-87
2022/06/13 09:00:35;;;;;;;6.00;2.67;;;22.60;67.20;;;;;;4977588;28;20036;-88
2022/06/13 09:03:30;;;;;;;9.20;2.00;;;22.60;67.80;;;;;;5051141;28;20014;-89
2022/06/13 09:06:09;;;;;;;8.73;2.42;;;22.60;67.40;;;;;;5052638;28;20125;-89
2022/06/13 09:08:58;;;;;;;7.97;2.40;;;22.60;68.00;;;;;;5047812;28;20105;-88
2022/06/13 09:11:33;;;;;;;7.28;2.40;;;22.70;67.10;;;;;;5047375;28;20030;-86
2022/06/13 09:14:21;;;;;;;5.07;2.20;;;22.80;66.30;;;;;;5041005;28;20018;-89
2022/06/13 09:16:58;;;;;;;7.20;2.20;;;23.00;65.80;;;;;;5044844;28;20038;-88
2022/06/13 09:19:34;;;;;;;9.25;2.10;;;23.10;65.10;;;;;;5031183;28;20049;-88
2022/06/13 09:22:21;;;;;;;5.97;1.92;;;23.10;65.60;;;;;;5049707;28;20037;-88
2022/06/13 09:24:47;;;;;;;7.15;2.00;;;;;;;;;;5049667;28;20066;-88
2022/06/13 09:27:20;;;;;;;8.60;2.05;;;23.50;65.10;;;;;;5047518;28;20053;-89
2022/06/13 09:30:04;;;;;;;8.00;2.20;;;23.50;64.40;;;;;;5038648;28;20030;-88
2022/06/13 09:32:36;;;;;;;12.32;2.10;;;23.40;64.40;;;;;;5061141;28;20026;-89
2022/06/13 09:35:31;;;;;;;4.82;2.00;;;23.40;65.40;;;;;;5042231;28;20013;-88
2022/06/13 09:38:13;;;;;;;4.60;1.75;;;23.30;63.80;;;;;;5048745;28;20013;-89
2022/06/13 09:40:51;;;;;;;5.20;2.00;;;23.30;62.20;;;;;;5050639;28;20077;-88
2022/06/13 09:43:35;;;;;;;7.65;1.77;;;23.50;63.20;;;;;;5044975;28;20056;-87
2022/06/13 09:46:01;;;;;;;6.38;1.40;;;;;;;;;;5049475;28;20030;-88
2022/06/13 09:48:39;;;;;;;4.25;1.58;;;23.70;62.10;;;;;;5048994;28;20014;-88
2022/06/13 09:51:37;;;;;;;6.15;2.08;;;24.00;61.60;;;;;;5044659;28;20010;-88
2022/06/13 09:54:03;;;;;;;5.07;1.75;;;25.60;63.00;;;;;;5045604;28;20026;-89
2022/06/13 09:56:35;;;;;;;4.63;2.53;;;24.00;63.10;;;;;;5047906;28;20033;-88
2022/06/13 09:59:10;;;;;;;6.88;1.80;;;24.00;63.00;;;;;;5046203;28;20049;-88
2022/06/13 10:01:45;;;;;;;6.70;1.63;;;24.00;63.10;;;;;;5044268;28;20041;-87
2022/06/13 10:04:22;;;;;;;4.40;1.92;;;24.00;62.80;;;;;;5045441;28;20041;-89
2022/06/13 10:06:57;;;;;;;7.13;1.60;;;24.10;63.00;;;;;;5055815;28;20025;-89
2022/06/13 10:09:28;;;;;;;6.10;2.13;;;24.40;62.50;;;;;;5038424;28;20048;-89
2022/06/13 10:12:19;;;;;;;7.88;2.08;;;24.40;62.50;;;;;;5033975;28;20038;-89
2022/06/13 10:14:45;;;;;;;7.50;2.50;;;24.20;61.90;;;;;;5046895;28;20005;-88
2022/06/13 10:17:25;;;;;;;5.03;2.25;;;23.80;63.30;;;;;;5043917;28;20021;-88
2022/06/13 10:20:06;;;;;;;5.47;2.20;;;23.90;62.50;;;;;;5054010;28;20039;-88
2022/06/13 10:22:56;;;;;;;5.22;1.80;;;24.40;61.10;;;;;;5048734;28;20033;-88
2022/06/13 10:25:28;;;;;;;5.93;2.08;;;24.40;61.70;;;;;;5053245;28;20021;-87
2022/06/13 10:28:29;;;;;;;5.95;2.10;;;24.60;61.10;;;;;;5052179;28;20037;-90
2022/06/13 10:31:15;;;;;;;4.95;2.05;;;25.00;60.90;;;;;;5048235;28;20062;-88
2022/06/13 10:34:00;;;;;;;5.47;2.05;;;25.00;60.20;;;;;;5033810;28;20021;-89
2022/06/13 10:36:44;;;;;;;6.88;2.17;;;24.90;60.60;;;;;;5050951;28;20030;-88
2022/06/13 10:39:14;;;;;;;18.15;11.35;;;24.80;61.10;;;;;;5049250;28;20017;-88
2022/06/13 10:41:44;;;;;;;4.20;1.90;;;24.70;61.40;;;;;;5047923;28;20018;-88
2022/06/13 10:44:13;;;;;;;5.20;1.90;;;24.80;62.70;;;;;;5051770;28;20010;-89
2022/06/13 10:46:50;;;;;;;5.73;2.30;;;25.00;61.00;;;;;;5047104;28;20037;-88
2022/06/13 10:49:45;;;;;;;7.57;2.38;;;24.80;59.60;;;;;;5055252;28;20804;-87
2022/06/13 10:52:16;;;;;;;4.40;2.10;;;25.10;59.10;;;;;;5046272;28;20037;-90
2022/06/13 10:54:50;;;;;;;8.98;2.13;;;25.40;58.40;;;;;;5039481;28;20040;-90
2022/06/13 10:57:25;;;;;;;4.93;2.08;;;25.50;58.60;;;;;;5038207;28;20029;-89
2022/06/13 11:00:21;;;;;;;7.57;2.15;;;25.60;58.80;;;;;;5042915;28;20017;-89
2022/06/13 11:02:48;;;;;;;5.60;1.70;;;25.30;56.80;;;;;;5038675;28;20030;-89
2022/06/13 11:05:23;;;;;;;6.63;1.75;;;25.30;57.40;;;;;;5036331;28;20033;-89
2022/06/13 11:07:59;;;;;;;6.43;2.03;;;25.20;59.00;;;;;;5032744;28;20065;-89
2022/06/13 11:10:30;;;;;;;6.60;2.20;;;25.50;58.30;;;;;;5040206;28;20037;-88
2022/06/13 11:12:57;;;;;;;5.07;2.33;;;25.60;57.70;;;;;;5041959;28;20022;-89
2022/06/13 11:24:18;;;;;;;4.22;1.73;;;26.10;56.70;;;;;;5043253;28;20039;-89
2022/06/13 11:29:33;;;;;;;5.93;2.10;;;25.90;58.30;;;;;;5036736;28;20040;-90
2022/06/13 11:32:01;;;;;;;5.53;1.65;;;25.50;58.20;;;;;;5038741;28;20025;-88
2022/06/13 11:34:35;;;;;;;5.60;1.95;;;25.50;58.10;;;;;;5034633;28;20475;-88
2022/06/13 11:37:23;;;;;;;4.85;2.00;;;25.10;58.60;;;;;;5040338;28;20025;-90
2022/06/13 11:39:52;;;;;;;5.80;2.03;;;24.80;59.00;;;;;;5042109;28;20118;-90
2022/06/13 11:42:28;;;;;;;7.47;2.70;;;24.70;59.80;;;;;;5037548;28;20036;-87
2022/06/13 11:45:00;;;;;;;5.93;1.85;;;25.00;57.60;;;;;;5041436;28;20307;-90
2022/06/13 11:47:37;;;;;;;8.05;3.60;;;25.20;56.10;;;;;;5044742;28;20041;-90
2022/06/13 11:50:22;;;;;;;5.97;2.40;;;25.30;56.20;;;;;;5036848;28;20522;-89
2022/06/13 11:55:56;;;;;;;6.70;2.45;;;25.20;57.20;;;;;;5037225;28;20044;-90
2022/06/13 11:58:31;;;;;;;8.85;2.03;;;25.30;56.80;;;;;;5032236;28;20089;-89
2022/06/13 12:01:18;;;;;;;4.35;2.35;;;25.10;57.20;;;;;;5038119;28;20052;-89
2022/06/13 12:04:17;;;;;;;5.03;2.10;;;25.30;57.80;;;;;;5039835;28;20026;-89
2022/06/13 12:06:46;;;;;;;4.65;2.08;;;25.10;58.20;;;;;;5036833;28;20571;-90
2022/06/13 12:09:31;;;;;;;7.60;2.30;;;25.00;57.50;;;;;;5042974;28;20026;-91
2022/06/13 12:12:03;;;;;;;7.55;2.13;;;25.30;57.50;;;;;;5051415;28;20029;-90
2022/06/13 12:14:33;;;;;;;7.38;2.47;;;25.40;57.20;;;;;;5037841;28;20127;-89
2022/06/13 12:17:21;;;;;;;9.13;2.65;;;25.70;57.00;;;;;;5038216;28;20026;-90
2022/06/13 12:19:59;;;;;;;5.30;2.22;;;25.80;57.00;;;;;;5034670;28;20022;-90
2022/06/13 12:22:41;;;;;;;8.02;2.30;;;25.90;56.10;;;;;;5032533;28;20026;-90
2022/06/13 12:25:14;;;;;;;7.75;2.10;;;26.00;56.40;;;;;;5039372;28;20056;-88
2022/06/13 12:28:03;;;;;;;4.78;2.03;;;25.90;55.80;;;;;;5041054;28;20113;-90
2022/06/13 12:31:00;;;;;;;5.63;2.17;;;26.00;56.00;;;;;;5036305;28;20042;-89
2022/06/13 12:33:53;;;;;;;7.13;1.95;;;26.20;56.50;;;;;;5041393;28;20331;-89
2022/06/13 12:36:31;;;;;;;5.78;2.00;;;26.30;56.30;;;;;;5039365;28;20029;-88
2022/06/13 12:39:18;;;;;;;5.80;2.20;;;26.40;56.50;;;;;;5034220;28;20510;-89
2022/06/13 12:42:15;;;;;;;5.75;1.98;;;26.50;56.20;;;;;;5039811;28;20064;-88
2022/06/13 12:45:06;;;;;;;5.90;2.03;;;26.40;55.60;;;;;;5037151;28;20006;-89
2022/06/13 12:47:53;;;;;;;5.68;2.00;;;26.30;55.80;;;;;;5039030;28;20556;-89
2022/06/13 12:50:37;;;;;;;7.32;2.17;;;25.90;56.80;;;;;;5038703;28;20018;-89
2022/06/13 12:53:22;;;;;;;6.50;2.53;;;25.60;56.90;;;;;;5047106;28;20041;-90
2022/06/13 12:56:26;;;;;;;5.80;2.00;;;25.40;58.40;;;;;;5044401;28;20388;-89
2022/06/13 12:59:43;;;;;;;6.13;2.42;;;25.50;57.60;;;;;;5027018;28;20045;-90
2022/06/13 13:02:15;;;;;;;6.13;2.80;;;25.30;57.10;;;;;;4990891;28;20033;-90
2022/06/13 13:04:48;;;;;;;8.13;3.28;;;25.10;58.30;;;;;;5032776;28;20084;-90
2022/06/13 13:07:14;;;;;;;6.13;1.95;;;25.10;58.10;;;;;;5039571;28;20022;-90
2022/06/13 13:09:55;;;;;;;6.25;2.30;;;25.00;57.40;;;;;;5030734;28;20060;-89
2022/06/13 13:12:42;;;;;;;3.85;1.83;;;24.90;57.90;;;;;;5029560;28;20029;-89
2022/06/13 13:15:26;;;;;;;5.40;2.30;;;24.90;58.30;;;;;;5032838;28;20029;-88
2022/06/13 13:18:39;;;;;;;6.47;2.70;;;24.90;58.50;;;;;;5039671;28;20018;-89
2022/06/13 13:21:24;;;;;;;7.20;1.83;;;24.90;58.50;;;;;;4994184;28;20325;-89
2022/06/13 13:23:59;;;;;;;6.45;3.15;;;25.20;56.90;;;;;;5036718;28;20025;-89
2022/06/13 13:26:47;;;;;;;6.90;2.03;;;25.40;56.90;;;;;;5040176;28;20495;-88
2022/06/13 13:29:23;;;;;;;8.30;2.45;;;25.60;56.80;;;;;;5032925;28;20112;-91
2022/06/13 13:32:00;;;;;;;5.47;2.13;;;25.70;56.90;;;;;;5036059;28;20037;-88
2022/06/13 13:35:01;;;;;;;7.95;2.28;;;25.70;56.50;;;;;;5036517;28;20056;-87
2022/06/13 13:37:43;;;;;;;6.80;2.35;;;25.40;57.10;;;;;;5037791;28;20032;-89
2022/06/13 13:40:20;;;;;;;4.57;2.05;;;25.30;57.80;;;;;;5031230;28;20040;-88
2022/06/13 13:42:59;;;;;;;4.63;1.70;;;25.30;57.70;;;;;;5036100;28;20032;-89
2022/06/13 13:45:37;;;;;;;5.35;2.20;;;25.30;58.30;;;;;;5039113;28;20084;-88
2022/06/13 13:48:14;;;;;;;7.57;2.00;;;25.50;58.30;;;;;;5035791;28;20038;-89
2022/06/13 13:50:47;;;;;;;8.25;2.97;;;25.50;57.80;;;;;;5041320;28;20021;-88
2022/06/13 13:53:16;;;;;;;4.60;1.90;;;25.50;57.60;;;;;;5031491;28;20064;-88
2022/06/13 13:55:57;;;;;;;4.45;2.00;;;25.50;57.50;;;;;;5036559;28;20057;-87
2022/06/13 13:58:32;;;;;;;6.47;2.28;;;25.30;57.20;;;;;;5038334;28;20079;-87
2022/06/13 14:01:34;;;;;;;5.13;1.88;;;25.50;57.80;;;;;;5040147;28;20095;-88